createdAt,value
2022-10-22T00:00:20.630Z,100462.13
2022-10-22T00:00:42.173Z,100467.41
2022-10-22T00:01:04.477Z,100464.72
2022-10-22T00:01:28.107Z,100462.03
2022-10-22T00:01:49.950Z,100453.22
2022-10-22T00:02:13.581Z,100463.00
2022-10-22T00:02:35.373Z,100458.59
2022-10-22T00:02:57.997Z,100455.91
2022-10-22T00:03:19.654Z,100460.41
2022-10-22T00:03:41.369Z,100457.22
2022-10-22T00:04:03.005Z,100449.16
2022-10-22T00:04:24.729Z,100462.63
2022-10-22T00:04:47.746Z,100459.28
2022-10-22T00:05:10.125Z,100466.94
2022-10-22T00:05:31.658Z,100459.94
2022-10-22T00:05:53.233Z,100457.38
2022-10-22T00:06:14.848Z,100464.34
2022-10-22T00:06:37.373Z,100462.63
2022-10-22T00:06:59.374Z,100465.31
2022-10-22T00:07:21.277Z,100473.81
2022-10-22T00:07:43.232Z,100465.75
2022-10-22T00:08:05.240Z,100465.63
2022-10-22T00:08:27.891Z,100459.28
2022-10-22T00:08:49.591Z,100458.22
2022-10-22T00:09:11.581Z,100455.53
2022-10-22T00:09:33.223Z,100452.72
2022-10-22T00:09:55.758Z,100448.34
2022-10-22T00:10:18.894Z,100447.34
2022-10-22T00:10:41.250Z,100452.63
2022-10-22T00:11:14.512Z,100434.53
2022-10-22T00:11:37.064Z,100443.47
2022-10-22T00:11:58.843Z,100447.34
2022-10-22T00:12:20.784Z,100458.00
2022-10-22T00:12:42.405Z,100456.28
2022-10-22T00:13:05.121Z,100459.09
2022-10-22T00:13:26.710Z,100461.97
2022-10-22T00:13:48.930Z,100458.41
2022-10-22T00:14:10.534Z,100460.16
2022-10-22T00:14:32.180Z,100462.53
2022-10-22T00:14:54.735Z,100464.47
2022-10-22T00:15:16.343Z,100462.63
2022-10-22T00:15:38.088Z,100468.13
2022-10-22T00:15:59.682Z,100456.50
2022-10-22T00:16:22.244Z,100462.06
2022-10-22T00:16:43.850Z,100462.28
2022-10-22T00:17:08.021Z,100462.19
2022-10-22T00:17:32.936Z,100465.63
2022-10-22T00:18:39.182Z,100469.94
2022-10-22T00:19:00.825Z,100465.53
2022-10-22T00:19:22.456Z,100478.88
2022-10-22T00:19:44.038Z,100470.81
2022-10-22T00:20:06.897Z,100474.47
2022-10-22T00:20:29.456Z,100470.34
2022-10-22T00:20:51.013Z,100458.41
2022-10-22T00:21:12.568Z,100468.75
2022-10-22T00:21:34.145Z,100469.59
2022-10-22T00:21:58.177Z,100469.59
2022-10-22T00:22:19.730Z,100467.88
2022-10-22T00:22:41.357Z,100473.25
2022-10-22T00:23:03.239Z,100466.91
2022-10-22T00:23:24.841Z,100467.66
2022-10-22T00:23:47.420Z,100472.19
2022-10-22T00:24:09.113Z,100470.34
2022-10-22T00:24:30.729Z,100472.09
2022-10-22T00:24:52.317Z,100466.91
2022-10-22T00:25:14.916Z,100461.00
2022-10-22T00:25:36.531Z,100469.81
2022-10-22T00:25:58.140Z,100467.75
2022-10-22T00:26:21.384Z,100473.03
2022-10-22T00:26:42.989Z,100469.50
2022-10-22T00:27:06.343Z,100464.97
2022-10-22T00:27:27.968Z,100466.72
2022-10-22T00:27:49.555Z,100461.22
2022-10-22T00:28:11.671Z,100465.63
2022-10-22T00:28:33.326Z,100467.44
2022-10-22T00:28:55.839Z,100466.47
2022-10-22T00:29:18.742Z,100468.31
2022-10-22T00:29:40.461Z,100469.16
2022-10-22T00:30:02.038Z,100466.63
2022-10-22T00:30:24.589Z,100469.31
2022-10-22T00:30:46.296Z,100466.63
2022-10-22T00:31:08.211Z,100463.78
2022-10-22T00:31:29.796Z,100462.75
2022-10-22T00:31:52.453Z,100462.75
2022-10-22T00:32:15.151Z,100462.75
2022-10-22T00:32:36.819Z,100441.88
2022-10-22T00:32:58.397Z,100463.59
2022-10-22T00:33:19.987Z,100459.09
2022-10-22T00:33:42.921Z,100462.53
2022-10-22T00:34:04.575Z,100464.25
2022-10-22T00:34:26.258Z,100452.72
2022-10-22T00:34:47.881Z,100473.50
2022-10-22T00:35:10.469Z,100463.78
2022-10-22T00:35:32.504Z,100463.59
2022-10-22T00:35:54.529Z,100471.44
2022-10-22T00:36:16.752Z,100475.00
2022-10-22T00:36:39.283Z,100470.50
2022-10-22T00:37:00.901Z,100467.91
2022-10-22T00:37:22.484Z,100470.69
2022-10-22T00:37:45.240Z,100468.75
2022-10-22T00:38:06.831Z,100461.88
2022-10-22T00:38:29.421Z,100468.53
2022-10-22T00:38:50.967Z,100471.16
2022-10-22T00:39:16.038Z,100460.47
2022-10-22T00:39:38.575Z,100462.34
2022-10-22T00:40:00.211Z,100464.94
2022-10-22T00:40:21.928Z,100468.00
2022-10-22T00:40:43.895Z,100473.75
2022-10-22T00:41:07.478Z,100476.44
2022-10-22T00:41:30.487Z,100466.75
2022-10-22T00:41:53.951Z,100465.78
2022-10-22T00:42:19.828Z,100469.25
2022-10-22T00:42:43.009Z,100466.84
2022-10-22T00:43:04.905Z,100481.69
2022-10-22T00:43:27.534Z,100474.63
2022-10-22T00:43:57.514Z,100472.81
2022-10-22T00:44:53.720Z,100467.41
2022-10-22T00:45:22.972Z,100478.06
2022-10-22T00:45:46.622Z,100469.97
2022-10-22T00:46:08.193Z,100474.41
2022-10-22T00:46:30.524Z,100477.19
2022-10-22T00:46:52.067Z,100473.53
2022-10-22T00:47:14.005Z,100464.50
2022-10-22T00:47:38.365Z,100466.44
2022-10-22T00:48:04.757Z,100476.22
2022-10-22T00:48:29.716Z,100470.84
2022-10-22T00:48:53.654Z,100467.28
2022-10-22T00:49:15.236Z,100467.41
2022-10-22T00:49:36.824Z,100476.31
2022-10-22T00:49:59.996Z,100463.88
2022-10-22T00:50:26.067Z,100463.88
2022-10-22T00:50:51.927Z,100463.97
2022-10-22T00:51:13.998Z,100466.44
2022-10-22T00:51:37.362Z,100461.06
2022-10-22T00:51:59.043Z,100464.72
2022-10-22T00:52:22.524Z,100466.34
2022-10-22T00:52:44.528Z,100463.66
2022-10-22T00:53:12.913Z,100459.22
2022-10-22T00:53:38.440Z,100469.88
2022-10-22T00:54:04.600Z,100455.56
2022-10-22T00:54:26.253Z,100466.25
2022-10-22T00:54:48.058Z,100460.84
2022-10-22T00:55:10.371Z,100457.41
2022-10-22T00:55:34.212Z,100469.88
2022-10-22T00:55:56.115Z,100469.03
2022-10-22T00:56:17.899Z,100469.03
2022-10-22T00:56:40.905Z,100465.38
2022-10-22T00:57:03.426Z,100469.03
2022-10-22T00:57:25.100Z,100460.00
2022-10-22T00:57:47.377Z,100470.75
2022-10-22T00:58:10.575Z,100461.47
2022-10-22T00:58:36.883Z,100462.78
2022-10-22T00:59:01.778Z,100460.09
2022-10-22T00:59:24.447Z,100466.34
2022-10-22T00:59:46.991Z,100461.91
2022-10-22T01:00:10.273Z,100454.72
2022-10-22T01:00:32.040Z,100467.19
2022-10-22T01:00:55.741Z,100463.56
2022-10-22T01:01:21.744Z,100462.78
2022-10-22T01:01:45.105Z,100459.03
2022-10-22T01:02:06.706Z,100459.03
2022-10-22T01:02:28.356Z,100449.66
2022-10-22T01:02:52.828Z,100464.28
2022-10-22T01:03:14.698Z,100460.97
2022-10-22T01:03:36.283Z,100458.16
2022-10-22T01:03:58.452Z,100443.06
2022-10-22T01:04:21.748Z,100463.56
2022-10-22T01:04:43.484Z,100468.16
2022-10-22T01:05:05.984Z,100460.19
2022-10-22T01:05:29.224Z,100473.53
2022-10-22T01:05:56.949Z,100464.59
2022-10-22T01:06:23.745Z,100456.53
2022-10-22T01:06:45.609Z,100458.34
2022-10-22T01:07:07.437Z,100467.28
2022-10-22T01:07:29.212Z,100468.16
2022-10-22T01:07:54.124Z,100461.06
2022-10-22T01:08:24.082Z,100463.00
2022-10-22T01:08:55.930Z,100469.13
2022-10-22T01:09:26.455Z,100472.81
2022-10-22T01:10:01.352Z,100474.63
2022-10-22T01:10:47.532Z,100469.13
2022-10-22T01:11:18.016Z,100469.13
2022-10-22T01:11:53.378Z,100467.41
2022-10-22T01:12:21.998Z,100462.13
2022-10-22T01:12:50.606Z,100463.00
2022-10-22T01:13:25.077Z,100454.94
2022-10-22T01:13:56.840Z,100456.53
2022-10-22T01:14:25.576Z,100456.53
2022-10-22T01:15:08.138Z,100452.03
2022-10-22T01:15:38.367Z,100442.34
2022-10-22T01:16:08.565Z,100448.59
2022-10-22T01:16:37.357Z,100448.59
2022-10-22T01:17:06.836Z,100445.13
2022-10-22T01:17:36.073Z,100455.91
2022-10-22T01:18:02.761Z,100450.53
2022-10-22T01:18:36.124Z,100449.44
2022-10-22T01:19:05.760Z,100433.16
2022-10-22T01:19:46.324Z,100447.84
2022-10-22T01:20:22.441Z,100447.84
2022-10-22T01:20:58.491Z,100444.47
2022-10-22T01:21:30.272Z,100432.31
2022-10-22T01:21:59.541Z,100441.66
2022-10-22T01:22:29.587Z,100445.22
2022-10-22T01:22:59.189Z,100448.78
2022-10-22T01:23:51.264Z,100441.66
2022-10-22T01:24:30.019Z,100458.78
2022-10-22T01:24:59.615Z,100452.41
2022-10-22T01:25:32.609Z,100446.72
2022-10-22T01:25:58.564Z,100448.97
2022-10-22T01:26:26.548Z,100451.66
2022-10-22T01:27:10.728Z,100449.84
2022-10-22T01:27:43.845Z,100443.50
2022-10-22T01:28:18.930Z,100441.66
2022-10-22T01:28:58.105Z,100444.34
2022-10-22T01:29:26.296Z,100442.63
2022-10-22T01:29:50.734Z,100444.56
2022-10-22T01:30:15.830Z,100432.41
2022-10-22T01:30:38.416Z,100440.06
2022-10-22T01:31:02.049Z,100444.47
2022-10-22T01:31:27.172Z,100447.16
2022-10-22T01:31:55.562Z,100442.63
2022-10-22T01:32:21.806Z,100433.25
2022-10-22T01:32:47.327Z,100442.75
2022-10-22T01:33:12.997Z,100441.88
2022-10-22T01:33:35.238Z,100443.69
2022-10-22T01:33:59.348Z,100448.97
2022-10-22T01:34:24.066Z,100443.69
2022-10-22T01:34:50.879Z,100440.06
2022-10-22T01:35:15.749Z,100443.59
2022-10-22T01:35:41.272Z,100437.69
2022-10-22T01:36:04.690Z,100444.56
2022-10-22T01:36:29.201Z,100439.09
2022-10-22T01:36:52.531Z,100445.34
2022-10-22T01:37:16.926Z,100437.25
2022-10-22T01:37:45.856Z,100436.50
2022-10-22T01:38:12.586Z,100440.06
2022-10-22T01:38:34.524Z,100437.34
2022-10-22T01:38:58.789Z,100435.53
2022-10-22T01:39:23.207Z,100431.53
2022-10-22T01:39:46.801Z,100439.19
2022-10-22T01:40:10.477Z,100437.34
2022-10-22T01:40:33.948Z,100438.22
2022-10-22T01:40:56.595Z,100440.06
2022-10-22T01:41:18.856Z,100441.00
2022-10-22T01:41:45.306Z,100438.31
2022-10-22T01:42:07.826Z,100435.63
2022-10-22T01:42:29.427Z,100430.88
2022-10-22T01:42:57.390Z,100435.63
2022-10-22T01:43:19.242Z,100445.53
2022-10-22T01:43:41.859Z,100442.75
2022-10-22T01:44:04.979Z,100445.53
2022-10-22T01:44:28.664Z,100445.53
2022-10-22T01:44:50.661Z,100441.88
2022-10-22T01:45:14.216Z,100441.09
2022-10-22T01:45:39.492Z,100441.09
2022-10-22T01:46:04.475Z,100445.53
2022-10-22T01:46:27.968Z,100441.22
2022-10-22T01:46:55.792Z,100446.28
2022-10-22T01:47:27.630Z,100445.53
2022-10-22T01:48:00.841Z,100441.00
2022-10-22T01:48:41.515Z,100440.16
2022-10-22T01:49:21.908Z,100439.41
2022-10-22T01:50:10.551Z,100442.09
2022-10-22T01:50:52.815Z,100435.84
2022-10-22T01:51:26.392Z,100443.69
2022-10-22T01:51:59.606Z,100445.53
2022-10-22T01:52:34.639Z,100445.53
2022-10-22T01:53:26.220Z,100432.31
2022-10-22T01:53:54.636Z,100440.16
2022-10-22T01:54:26.685Z,100439.41
2022-10-22T01:54:58.945Z,100438.53
2022-10-22T01:55:28.612Z,100441.00
2022-10-22T01:56:02.160Z,100447.25
2022-10-22T01:56:49.144Z,100444.66
2022-10-22T01:57:20.536Z,100440.16
2022-10-22T01:57:47.977Z,100432.50
2022-10-22T01:58:19.623Z,100441.00
2022-10-22T01:58:51.568Z,100435.84
2022-10-22T01:59:29.384Z,100432.31
2022-10-22T01:59:58.124Z,100441.09
2022-10-22T02:00:21.303Z,100441.09
2022-10-22T02:00:49.983Z,100443.78
2022-10-22T02:01:18.580Z,100440.28
2022-10-22T02:01:49.048Z,100442.97
2022-10-22T02:02:19.731Z,100440.28
2022-10-22T02:02:49.224Z,100456.50
2022-10-22T02:03:19.866Z,100445.75
2022-10-22T02:03:52.340Z,100448.53
2022-10-22T02:04:19.948Z,100442.19
2022-10-22T02:04:46.315Z,100447.47
2022-10-22T02:05:17.581Z,100453.72
2022-10-22T02:05:44.577Z,100447.47
2022-10-22T02:06:14.436Z,100454.53
2022-10-22T02:06:37.572Z,100446.38
2022-10-22T02:07:04.139Z,100448.34
2022-10-22T02:07:30.964Z,100451.03
2022-10-22T02:07:55.949Z,100459.94
2022-10-22T02:08:22.682Z,100459.09
2022-10-22T02:08:47.031Z,100446.47
2022-10-22T02:09:10.459Z,100452.84
2022-10-22T02:09:34.916Z,100440.16
2022-10-22T02:10:01.161Z,100452.63
2022-10-22T02:10:25.172Z,100443.78
2022-10-22T02:10:49.406Z,100449.28
2022-10-22T02:11:14.000Z,100451.75
2022-10-22T02:11:37.126Z,100456.41
2022-10-22T02:12:03.351Z,100453.72
2022-10-22T02:12:27.625Z,100458.31
2022-10-22T02:12:52.261Z,100461.88
2022-10-22T02:13:19.122Z,100463.78
2022-10-22T02:13:44.112Z,100468.44
2022-10-22T02:14:07.763Z,100458.66
2022-10-22T02:14:33.119Z,100464.22
2022-10-22T02:14:57.523Z,100460.69
2022-10-22T02:15:21.157Z,100463.38
2022-10-22T02:15:45.714Z,100460.78
2022-10-22T02:16:11.100Z,100459.81
2022-10-22T02:16:37.810Z,100458.00
2022-10-22T02:17:02.081Z,100457.13
2022-10-22T02:17:27.568Z,100443.34
2022-10-22T02:17:51.210Z,100456.16
2022-10-22T02:18:14.238Z,100451.84
2022-10-22T02:18:41.307Z,100454.75
2022-10-22T02:19:10.437Z,100450.25
2022-10-22T02:19:40.561Z,100451.94
2022-10-22T02:20:08.975Z,100457.31
2022-10-22T02:20:33.713Z,100440.88
2022-10-22T02:20:56.127Z,100443.34
2022-10-22T02:21:17.856Z,100451.06
2022-10-22T02:21:39.702Z,100449.16
2022-10-22T02:22:02.535Z,100456.28
2022-10-22T02:22:26.195Z,100444.88
2022-10-22T02:22:47.962Z,100448.22
2022-10-22T02:23:10.680Z,100449.38
2022-10-22T02:23:33.445Z,100445.59
2022-10-22T02:23:55.187Z,100451.84
2022-10-22T02:24:17.645Z,100450.25
2022-10-22T02:24:39.294Z,100452.81
2022-10-22T02:25:00.935Z,100454.75
2022-10-22T02:25:28.637Z,100453.78
2022-10-22T02:25:56.123Z,100458.31
2022-10-22T02:26:24.032Z,100457.31
2022-10-22T02:26:54.270Z,100450.13
2022-10-22T02:27:25.744Z,100451.84
2022-10-22T02:27:54.010Z,100453.78
2022-10-22T02:28:24.249Z,100450.03
2022-10-22T02:28:55.719Z,100449.94
2022-10-22T02:29:24.713Z,100452.81
2022-10-22T02:29:54.651Z,100457.13
2022-10-22T02:30:19.895Z,100448.28
2022-10-22T02:30:45.310Z,100452.72
2022-10-22T02:31:14.976Z,100452.63
2022-10-22T02:31:40.588Z,100449.81
2022-10-22T02:32:05.252Z,100438.94
2022-10-22T02:32:32.838Z,100452.31
2022-10-22T02:33:00.273Z,100454.88
2022-10-22T02:33:24.984Z,100457.69
2022-10-22T02:33:51.217Z,100457.56
2022-10-22T02:34:18.260Z,100453.91
2022-10-22T02:34:40.474Z,100463.78
2022-10-22T02:35:03.755Z,100452.19
2022-10-22T02:35:28.633Z,100456.81
2022-10-22T02:35:52.272Z,100460.16
2022-10-22T02:36:16.427Z,100460.16
2022-10-22T02:36:39.161Z,100452.31
2022-10-22T02:37:04.203Z,100450.56
2022-10-22T02:37:27.401Z,100458.31
2022-10-22T02:37:50.496Z,100451.22
2022-10-22T02:38:13.800Z,100461.09
2022-10-22T02:38:37.384Z,100461.88
2022-10-22T02:39:00.136Z,100464.56
2022-10-22T02:39:22.160Z,100464.66
2022-10-22T02:39:44.900Z,100458.41
2022-10-22T02:40:08.799Z,100458.53
2022-10-22T02:40:31.224Z,100462.06
2022-10-22T02:40:52.985Z,100465.53
2022-10-22T02:41:15.856Z,100449.41
2022-10-22T02:41:39.076Z,100442.81
2022-10-22T02:42:01.727Z,100459.38
2022-10-22T02:42:25.377Z,100461.44
2022-10-22T02:42:48.335Z,100460.56
2022-10-22T02:43:10.873Z,100456.91
2022-10-22T02:43:40.133Z,100459.50
2022-10-22T02:44:02.682Z,100461.22
2022-10-22T02:44:24.608Z,100447.97
2022-10-22T02:44:47.512Z,100460.38
2022-10-22T02:45:11.181Z,100463.94
2022-10-22T02:45:34.554Z,100461.44
2022-10-22T02:45:56.162Z,100457.78
2022-10-22T02:46:17.731Z,100463.16
2022-10-22T02:46:41.459Z,100457.78
2022-10-22T02:47:03.504Z,100461.34
2022-10-22T02:47:25.128Z,100450.56
2022-10-22T02:47:46.925Z,100460.38
2022-10-22T02:48:08.916Z,100457.69
2022-10-22T02:48:30.696Z,100460.38
2022-10-22T02:48:53.245Z,100459.38
2022-10-22T02:49:14.879Z,100461.22
2022-10-22T02:49:36.456Z,100444.00
2022-10-22T02:49:58.163Z,100465.94
2022-10-22T02:50:19.705Z,100458.84
2022-10-22T02:50:42.657Z,100450.66
2022-10-22T02:51:04.405Z,100459.81
2022-10-22T02:51:25.989Z,100456.16
2022-10-22T02:51:47.671Z,100460.78
2022-10-22T02:52:10.204Z,100457.13
2022-10-22T02:52:31.814Z,100464.53
2022-10-22T02:52:53.394Z,100460.13
2022-10-22T02:53:14.956Z,100456.78
2022-10-22T02:53:36.516Z,100458.41
2022-10-22T02:53:59.201Z,100458.41
2022-10-22T02:54:20.843Z,100452.94
2022-10-22T02:54:42.400Z,100449.47
2022-10-22T02:55:05.283Z,100452.81
2022-10-22T02:55:26.838Z,100456.47
2022-10-22T02:55:49.380Z,100454.53
2022-10-22T02:56:10.969Z,100450.03
2022-10-22T02:56:32.963Z,100453.78
2022-10-22T02:56:54.536Z,100451.94
2022-10-22T02:57:16.526Z,100457.31
2022-10-22T02:57:39.460Z,100458.31
2022-10-22T02:58:01.313Z,100460.88
2022-10-22T02:58:22.856Z,100455.63
2022-10-22T02:58:44.448Z,100453.03
2022-10-22T02:59:06.056Z,100454.75
2022-10-22T02:59:28.600Z,100458.19
2022-10-22T02:59:51.554Z,100462.16
2022-10-22T03:00:14.127Z,100462.06
2022-10-22T03:00:35.725Z,100459.47
2022-10-22T03:00:58.346Z,100461.19
2022-10-22T03:01:20.126Z,100456.69
2022-10-22T03:01:41.704Z,100461.19
2022-10-22T03:02:03.611Z,100460.22
2022-10-22T03:02:25.341Z,100452.25
2022-10-22T03:02:47.921Z,100457.53
2022-10-22T03:03:09.465Z,100462.81
2022-10-22T03:03:31.061Z,100462.81
2022-10-22T03:03:52.777Z,100461.09
2022-10-22T03:04:16.539Z,100461.00
2022-10-22T03:04:38.112Z,100458.41
2022-10-22T03:04:59.791Z,100461.00
2022-10-22T03:05:21.348Z,100454.09
2022-10-22T03:05:43.892Z,100465.50
2022-10-22T03:06:05.903Z,100469.16
2022-10-22T03:06:27.474Z,100463.97
2022-10-22T03:06:49.403Z,100466.66
2022-10-22T03:07:11.949Z,100464.97
2022-10-22T03:07:34.308Z,100473.03
2022-10-22T03:07:55.955Z,100469.66
2022-10-22T03:08:17.532Z,100475.91
2022-10-22T03:08:40.141Z,100457.72
2022-10-22T03:09:01.806Z,100476.22
2022-10-22T03:09:24.861Z,100471.25
2022-10-22T03:09:46.957Z,100476.31
2022-10-22T03:10:10.607Z,100468.47
2022-10-22T03:10:32.204Z,100468.47
2022-10-22T03:10:53.771Z,100465.88
2022-10-22T03:11:15.354Z,100472.00
2022-10-22T03:11:37.888Z,100466.63
2022-10-22T03:11:59.493Z,100467.41
2022-10-22T03:12:21.056Z,100469.22
2022-10-22T03:12:42.625Z,100469.09
2022-10-22T03:13:05.211Z,100466.53
2022-10-22T03:13:26.821Z,100456.84
2022-10-22T03:13:48.376Z,100467.19
2022-10-22T03:14:10.007Z,100466.22
2022-10-22T03:14:32.553Z,100472.56
2022-10-22T03:14:55.423Z,100473.44
2022-10-22T03:15:17.294Z,100465.47
2022-10-22T03:15:38.944Z,100464.59
2022-10-22T03:16:00.555Z,100464.72
2022-10-22T03:16:23.077Z,100471.06
2022-10-22T03:16:44.665Z,100472.66
2022-10-22T03:17:06.276Z,100465.03
2022-10-22T03:17:27.841Z,100478.34
2022-10-22T03:17:50.369Z,100462.34
2022-10-22T03:18:12.035Z,100460.19
2022-10-22T03:18:33.669Z,100469.22
2022-10-22T03:18:55.224Z,100457.81
2022-10-22T03:19:17.857Z,100461.16
2022-10-22T03:19:39.441Z,100471.91
2022-10-22T03:20:01.007Z,100465.88
2022-10-22T03:20:22.625Z,100462.22
2022-10-22T03:20:44.450Z,100470.28
2022-10-22T03:21:13.646Z,100462.63
2022-10-22T03:21:38.274Z,100470.50
2022-10-22T03:22:02.559Z,100468.69
2022-10-22T03:22:27.529Z,100469.63
2022-10-22T03:22:50.346Z,100467.81
2022-10-22T03:23:14.541Z,100467.72
2022-10-22T03:23:36.786Z,100468.56
2022-10-22T03:23:59.595Z,100478.34
2022-10-22T03:24:25.006Z,100471.25
2022-10-22T03:24:50.405Z,100478.47
2022-10-22T03:25:16.911Z,100472.09
2022-10-22T03:25:41.681Z,100482.84
2022-10-22T03:26:04.444Z,100475.78
2022-10-22T03:26:27.266Z,100473.19
2022-10-22T03:26:51.480Z,100461.97
2022-10-22T03:27:16.608Z,100475.78
2022-10-22T03:27:40.361Z,100477.59
2022-10-22T03:28:06.312Z,100474.91
2022-10-22T03:28:28.080Z,100477.59
2022-10-22T03:28:49.952Z,100489.22
2022-10-22T03:29:16.315Z,100477.47
2022-10-22T03:29:40.155Z,100469.53
2022-10-22T03:30:04.256Z,100484.50
2022-10-22T03:30:26.747Z,100476.31
2022-10-22T03:30:48.444Z,100480.06
2022-10-22T03:31:10.005Z,100474.69
2022-10-22T03:31:31.580Z,100475.66
2022-10-22T03:31:54.708Z,100464.34
2022-10-22T03:32:16.280Z,100475.78
2022-10-22T03:32:37.944Z,100477.69
2022-10-22T03:32:59.599Z,100469.84
2022-10-22T03:33:21.232Z,100474.06
2022-10-22T03:33:43.740Z,100471.47
2022-10-22T03:34:05.398Z,100472.31
2022-10-22T03:34:27.120Z,100468.22
2022-10-22T03:34:48.670Z,100480.28
2022-10-22T03:35:11.246Z,100474.06
2022-10-22T03:35:36.242Z,100474.91
2022-10-22T03:35:58.199Z,100473.19
2022-10-22T03:36:20.783Z,100476.84
2022-10-22T03:36:42.473Z,100477.78
2022-10-22T03:37:04.186Z,100473.50
2022-10-22T03:37:27.077Z,100471.69
2022-10-22T03:37:49.855Z,100471.78
2022-10-22T03:38:12.152Z,100478.97
2022-10-22T03:38:35.168Z,100476.28
2022-10-22T03:38:57.757Z,100476.28
2022-10-22T03:39:20.133Z,100474.84
2022-10-22T03:39:41.891Z,100471.31
2022-10-22T03:40:05.980Z,100483.69
2022-10-22T03:40:27.623Z,100480.13
2022-10-22T03:40:50.625Z,100483.56
2022-10-22T03:41:12.363Z,100479.06
2022-10-22T03:41:34.632Z,100473.81
2022-10-22T03:41:56.425Z,100472.94
2022-10-22T03:42:18.118Z,100479.91
2022-10-22T03:42:41.246Z,100472.81
2022-10-22T03:43:02.902Z,100481.75
2022-10-22T03:43:24.620Z,100475.41
2022-10-22T03:43:49.820Z,100477.22
2022-10-22T03:44:13.109Z,100477.44
2022-10-22T03:44:36.395Z,100480.88
2022-10-22T03:44:58.002Z,100478.97
2022-10-22T03:45:20.866Z,100478.09
2022-10-22T03:45:42.519Z,100480.88
2022-10-22T03:46:05.564Z,100485.19
2022-10-22T03:46:27.126Z,100488.84
2022-10-22T03:46:48.729Z,100489.72
2022-10-22T03:47:10.392Z,100476.38
2022-10-22T03:47:32.946Z,100480.78
2022-10-22T03:47:54.496Z,100489.72
2022-10-22T03:48:16.061Z,100481.75
2022-10-22T03:48:37.616Z,100480.88
2022-10-22T03:48:59.272Z,100480.03
2022-10-22T03:49:21.792Z,100483.47
2022-10-22T03:49:43.309Z,100485.28
2022-10-22T03:50:06.672Z,100486.06
2022-10-22T03:50:29.266Z,100487.03
2022-10-22T03:50:50.937Z,100482.44
2022-10-22T03:51:13.869Z,100487.97
2022-10-22T03:51:35.898Z,100485.50
2022-10-22T03:51:57.751Z,100478.50
2022-10-22T03:52:19.396Z,100488.19
2022-10-22T03:52:42.026Z,100483.78
2022-10-22T03:53:03.905Z,100489.16
2022-10-22T03:53:25.512Z,100488.28
2022-10-22T03:53:47.241Z,100484.00
2022-10-22T03:54:09.765Z,100486.56
2022-10-22T03:54:31.368Z,100485.16
2022-10-22T03:54:52.954Z,100488.50
2022-10-22T03:55:14.544Z,100488.38
2022-10-22T03:55:38.066Z,100484.88
2022-10-22T03:55:59.623Z,100480.53
2022-10-22T03:56:21.417Z,100484.94
2022-10-22T03:56:42.983Z,100488.38
2022-10-22T03:57:05.671Z,100486.00
2022-10-22T03:57:28.271Z,100482.34
2022-10-22T03:57:49.994Z,100481.31
2022-10-22T03:58:11.555Z,100476.81
2022-10-22T03:58:33.125Z,100487.53
2022-10-22T03:58:55.926Z,100485.59
2022-10-22T03:59:18.460Z,100478.63
2022-10-22T03:59:42.295Z,100486.69
2022-10-22T04:00:06.316Z,100484.94
2022-10-22T04:00:29.249Z,100485.16
2022-10-22T04:00:50.879Z,100482.47
2022-10-22T04:01:14.898Z,100470.06
2022-10-22T04:01:36.642Z,100475.88
2022-10-22T04:01:58.277Z,100481.72
2022-10-22T04:02:19.951Z,100480.59
2022-10-22T04:02:41.527Z,100488.13
2022-10-22T04:03:04.260Z,100488.13
2022-10-22T04:03:25.805Z,100494.56
2022-10-22T04:03:47.365Z,100487.47
2022-10-22T04:04:08.931Z,100491.81
2022-10-22T04:04:30.823Z,100492.84
2022-10-22T04:04:53.361Z,100488.03
2022-10-22T04:05:15.076Z,100496.09
2022-10-22T04:05:36.657Z,100475.22
2022-10-22T04:06:01.649Z,100500.50
2022-10-22T04:06:23.333Z,100501.38
2022-10-22T04:06:45.836Z,100494.19
2022-10-22T04:07:08.411Z,100501.28
2022-10-22T04:07:30.089Z,100501.16
2022-10-22T04:07:51.623Z,100497.72
2022-10-22T04:08:14.165Z,100496.75
2022-10-22T04:08:35.985Z,100502.97
2022-10-22T04:08:59.104Z,100495.69
2022-10-22T04:09:20.954Z,100493.97
2022-10-22T04:09:42.574Z,100500.22
2022-10-22T04:10:05.774Z,100496.66
2022-10-22T04:10:27.432Z,100493.97
2022-10-22T04:10:51.384Z,100496.56
2022-10-22T04:11:14.379Z,100497.31
2022-10-22T04:11:36.920Z,100497.31
2022-10-22T04:11:58.615Z,100503.75
2022-10-22T04:12:20.222Z,100495.69
2022-10-22T04:12:41.760Z,100491.28
2022-10-22T04:13:03.341Z,100496.44
2022-10-22T04:13:25.968Z,100485.91
2022-10-22T04:13:47.688Z,100484.59
2022-10-22T04:14:09.291Z,100502.25
2022-10-22T04:14:30.887Z,100494.19
2022-10-22T04:14:53.449Z,100489.97
2022-10-22T04:15:15.261Z,100503.19
2022-10-22T04:15:38.247Z,100506.66
2022-10-22T04:16:07.465Z,100485.75
2022-10-22T04:16:31.419Z,100497.81
2022-10-22T04:16:53.118Z,100495.91
2022-10-22T04:17:14.960Z,100498.47
2022-10-22T04:17:36.994Z,100494.75
2022-10-22T04:17:58.688Z,100497.31
2022-10-22T04:18:22.128Z,100496.44
2022-10-22T04:18:45.589Z,100503.66
2022-10-22T04:19:07.800Z,100485.34
2022-10-22T04:19:29.492Z,100493.97
2022-10-22T04:19:52.041Z,100488.91
2022-10-22T04:20:13.653Z,100499.56
2022-10-22T04:20:35.244Z,100495.91
2022-10-22T04:20:56.817Z,100498.38
2022-10-22T04:21:19.484Z,100502.81
2022-10-22T04:21:42.018Z,100498.28
2022-10-22T04:22:03.609Z,100504.72
2022-10-22T04:22:25.191Z,100501.81
2022-10-22T04:22:46.728Z,100498.47
2022-10-22T04:23:08.248Z,100494.84
2022-10-22T04:23:29.833Z,100500.22
2022-10-22T04:23:53.798Z,100501.06
2022-10-22T04:24:15.720Z,100500.22
2022-10-22T04:24:37.720Z,100503.66
2022-10-22T04:24:59.341Z,100503.66
2022-10-22T04:25:21.912Z,100499.13
2022-10-22T04:25:43.499Z,100506.22
2022-10-22T04:26:07.061Z,100503.44
2022-10-22T04:26:28.669Z,100502.38
2022-10-22T04:26:51.224Z,100502.81
2022-10-22T04:27:12.766Z,100508.06
2022-10-22T04:27:34.574Z,100511.72
2022-10-22T04:27:56.132Z,100510.75
2022-10-22T04:28:18.683Z,100507.31
2022-10-22T04:28:40.455Z,100488.91
2022-10-22T04:29:02.172Z,100509.78
2022-10-22T04:29:24.208Z,100511.59
2022-10-22T04:29:46.681Z,100511.50
2022-10-22T04:30:09.369Z,100514.41
2022-10-22T04:30:30.884Z,100508.34
2022-10-22T04:30:53.912Z,100509.88
2022-10-22T04:31:19.248Z,100520.63
2022-10-22T04:31:40.848Z,100521.41
2022-10-22T04:32:02.460Z,100520.53
2022-10-22T04:32:24.029Z,100519.56
2022-10-22T04:32:46.593Z,100522.16
2022-10-22T04:33:08.165Z,100521.31
2022-10-22T04:33:29.695Z,100519.56
2022-10-22T04:33:53.473Z,100515.06
2022-10-22T04:34:15.035Z,100519.34
2022-10-22T04:34:37.535Z,100518.50
2022-10-22T04:34:59.090Z,100514.13
2022-10-22T04:35:20.742Z,100514.00
2022-10-22T04:35:42.391Z,100514.41
2022-10-22T04:36:07.613Z,100517.84